createdAt,value
2022-10-18T00:01:09.451Z,64.83
2022-10-18T00:03:38.067Z,64.86
2022-10-18T00:06:07.731Z,64.73
2022-10-18T00:08:35.817Z,64.67
2022-10-18T00:11:03.741Z,64.67
2022-10-18T00:13:32.098Z,64.71
2022-10-18T00:16:03.262Z,64.46
2022-10-18T00:18:31.974Z,64.45
2022-10-18T00:21:02.124Z,64.43
2022-10-18T00:23:31.847Z,64.39
2022-10-18T00:26:01.600Z,64.60
2022-10-18T00:28:29.734Z,64.66
2022-10-18T00:30:57.790Z,64.38
2022-10-18T00:33:29.768Z,64.58
2022-10-18T00:36:01.299Z,64.67
2022-10-18T00:38:29.360Z,64.76
2022-10-18T00:40:57.237Z,64.73
2022-10-18T00:43:25.274Z,64.63
2022-10-18T00:45:53.163Z,64.61
2022-10-18T00:48:22.260Z,64.51
2022-10-18T00:50:54.575Z,64.33
2022-10-18T00:53:24.409Z,64.29
2022-10-18T00:55:52.446Z,64.51
2022-10-18T00:58:21.242Z,64.46
2022-10-18T01:00:49.311Z,64.47
2022-10-18T01:03:17.309Z,64.28
2022-10-18T01:05:47.823Z,64.39
2022-10-18T01:08:37.989Z,64.23
2022-10-18T01:11:17.126Z,64.49
2022-10-18T01:14:01.634Z,64.16
2022-10-18T01:16:37.264Z,64.23
2022-10-18T01:19:22.650Z,64.26
2022-10-18T01:21:57.130Z,64.22
2022-10-18T01:24:59.317Z,64.08
2022-10-18T01:27:45.696Z,64.39
2022-10-18T01:30:43.383Z,64.34
2022-10-18T01:33:22.293Z,64.21
2022-10-18T01:35:54.578Z,64.23
2022-10-18T01:38:26.564Z,64.05
2022-10-18T01:40:57.349Z,63.97
2022-10-18T01:43:26.580Z,64.27
2022-10-18T01:45:57.713Z,63.95
2022-10-18T01:48:25.898Z,64.09
2022-10-18T01:50:54.396Z,64.25
2022-10-18T01:53:31.357Z,64.13
2022-10-18T01:56:17.673Z,64.25
2022-10-18T01:58:55.208Z,64.20
2022-10-18T02:01:34.484Z,64.32
2022-10-18T02:04:12.511Z,64.17
2022-10-18T02:06:46.366Z,64.06
2022-10-18T02:09:20.774Z,63.97
2022-10-18T02:11:53.581Z,63.89
2022-10-18T02:14:23.888Z,64.18
2022-10-18T02:16:57.084Z,64.11
2022-10-18T02:19:28.666Z,63.90
2022-10-18T02:21:59.213Z,63.86
2022-10-18T02:24:35.285Z,64.15
2022-10-18T02:27:03.706Z,64.04
2022-10-18T02:29:33.053Z,63.99
2022-10-18T02:32:10.500Z,63.98
2022-10-18T02:34:42.462Z,63.92
2022-10-18T02:37:12.647Z,63.58
2022-10-18T02:39:45.927Z,63.88
2022-10-18T02:42:15.279Z,63.89
2022-10-18T02:44:43.209Z,63.89
2022-10-18T02:47:13.693Z,64.27
2022-10-18T02:49:41.870Z,64.02
2022-10-18T02:52:09.817Z,64.19
2022-10-18T02:54:37.758Z,64.12
2022-10-18T02:57:09.691Z,64.21
2022-10-18T02:59:37.608Z,64.04
2022-10-18T03:02:05.585Z,64.12
2022-10-18T03:04:34.860Z,63.99
2022-10-18T03:07:02.861Z,64.05
2022-10-18T03:09:30.828Z,63.80
2022-10-18T03:11:58.822Z,64.00
2022-10-18T03:14:26.817Z,63.89
2022-10-18T03:16:54.723Z,63.89
2022-10-18T03:19:22.698Z,63.83
2022-10-18T03:21:51.958Z,63.97
2022-10-18T03:24:20.022Z,63.92
2022-10-18T03:26:47.982Z,63.70
2022-10-18T03:29:15.935Z,63.67
2022-10-18T03:31:43.970Z,63.83
2022-10-18T03:34:11.899Z,63.88
2022-10-18T03:36:41.297Z,63.70
2022-10-18T03:39:13.764Z,63.67
2022-10-18T03:41:41.766Z,63.69
2022-10-18T03:44:09.878Z,63.43
2022-10-18T03:46:37.859Z,63.71
2022-10-18T03:49:05.805Z,63.65
2022-10-18T03:51:36.272Z,63.47
2022-10-18T03:54:04.665Z,63.59
2022-10-18T03:56:36.002Z,63.38
2022-10-18T03:59:04.606Z,63.42
2022-10-18T04:01:33.021Z,63.34
2022-10-18T04:04:01.083Z,63.42
2022-10-18T04:06:29.065Z,63.39
2022-10-18T04:08:57.191Z,63.51
2022-10-18T04:11:25.141Z,63.33
2022-10-18T04:13:54.435Z,63.65
2022-10-18T04:16:22.605Z,63.53
2022-10-18T04:18:50.975Z,62.92
2022-10-18T04:21:18.976Z,62.78
2022-10-18T04:23:48.377Z,62.90
2022-10-18T04:26:16.996Z,63.38
2022-10-18T04:28:45.615Z,63.55
2022-10-18T04:31:14.987Z,63.35
2022-10-18T04:33:45.234Z,63.48
2022-10-18T04:36:13.404Z,63.24
2022-10-18T04:38:41.353Z,63.14
2022-10-18T04:41:09.426Z,62.99
2022-10-18T04:43:37.427Z,63.05
2022-10-18T04:46:05.495Z,63.10
2022-10-18T04:48:34.774Z,63.13
2022-10-18T04:51:02.797Z,62.99
2022-10-18T04:53:30.702Z,63.11
2022-10-18T04:55:58.703Z,63.15
2022-10-18T04:58:26.741Z,63.45
2022-10-18T05:00:55.387Z,63.25
2022-10-18T05:03:23.298Z,63.26
2022-10-18T05:06:01.825Z,63.15
2022-10-18T05:08:32.793Z,62.82
2022-10-18T05:11:01.318Z,63.10
2022-10-18T05:13:32.108Z,62.88
2022-10-18T05:16:00.805Z,63.09
2022-10-18T05:18:29.180Z,62.93
2022-10-18T05:20:58.566Z,63.13
2022-10-18T05:23:26.659Z,63.11
2022-10-18T05:25:54.782Z,62.97
2022-10-18T05:28:41.115Z,62.75
2022-10-18T05:31:11.405Z,63.07
2022-10-18T05:33:39.936Z,63.03
2022-10-18T05:36:10.371Z,62.83
2022-10-18T05:38:42.096Z,62.67
2022-10-18T05:41:10.356Z,62.78
2022-10-18T05:43:38.443Z,62.75
2022-10-18T05:46:11.846Z,62.66
2022-10-18T05:48:43.161Z,62.81
2022-10-18T05:51:12.903Z,62.75
2022-10-18T05:53:40.861Z,62.67
2022-10-18T05:56:11.680Z,62.61
2022-10-18T05:58:40.647Z,62.61
2022-10-18T06:01:09.852Z,62.76
2022-10-18T06:03:37.951Z,62.54
2022-10-18T06:06:08.177Z,62.69
2022-10-18T06:08:38.481Z,62.69
2022-10-18T06:11:10.319Z,62.67
2022-10-18T06:13:41.668Z,62.86
2022-10-18T06:16:10.630Z,62.95
2022-10-18T06:18:39.017Z,63.09
2022-10-18T06:21:08.074Z,62.95
2022-10-18T06:23:42.036Z,62.94
2022-10-18T06:26:12.237Z,62.89
2022-10-18T06:28:40.526Z,62.99
2022-10-18T06:31:09.155Z,63.31
2022-10-18T06:33:37.345Z,62.96
2022-10-18T06:36:07.592Z,62.94
2022-10-18T06:38:36.329Z,63.11
2022-10-18T06:41:06.959Z,62.88
2022-10-18T06:43:34.937Z,62.91
2022-10-18T06:46:05.128Z,62.82
2022-10-18T06:48:34.072Z,62.95
2022-10-18T06:51:03.849Z,62.62
2022-10-18T06:53:33.417Z,62.95
2022-10-18T06:56:02.094Z,63.04
2022-10-18T06:58:31.915Z,62.58
2022-10-18T07:01:00.861Z,62.92
2022-10-18T07:03:29.519Z,62.83
2022-10-18T07:06:01.488Z,62.86
2022-10-18T07:08:30.077Z,62.96
2022-10-18T07:10:58.046Z,62.92
2022-10-18T07:13:32.312Z,62.82
2022-10-18T07:16:05.732Z,62.80
2022-10-18T07:18:35.201Z,62.74
2022-10-18T07:21:04.420Z,62.87
2022-10-18T07:23:34.213Z,62.63
2022-10-18T07:26:02.869Z,63.02
2022-10-18T07:28:31.117Z,62.88
2022-10-18T07:31:06.161Z,62.92
2022-10-18T07:33:37.956Z,63.37
2022-10-18T07:36:08.120Z,63.15
2022-10-18T07:38:37.005Z,62.77
2022-10-18T07:41:07.671Z,62.93
2022-10-18T07:43:36.035Z,63.46
2022-10-18T07:46:08.983Z,63.42
2022-10-18T07:48:38.354Z,63.30
2022-10-18T07:51:06.915Z,63.27
2022-10-18T07:53:34.963Z,63.34
2022-10-18T07:56:07.124Z,63.31
2022-10-18T07:58:37.586Z,63.20
2022-10-18T08:01:06.889Z,63.23
2022-10-18T08:03:39.254Z,63.04
2022-10-18T08:06:09.161Z,63.10
2022-10-18T08:08:38.814Z,62.85
2022-10-18T08:11:08.525Z,62.82
2022-10-18T08:13:36.761Z,63.09
2022-10-18T08:16:06.699Z,62.93
2022-10-18T08:18:35.444Z,62.75
2022-10-18T08:21:06.992Z,62.70
2022-10-18T08:23:35.471Z,62.96
2022-10-18T08:26:03.644Z,62.84
2022-10-18T08:28:31.978Z,62.71
2022-10-18T08:31:04.326Z,62.64
2022-10-18T08:33:32.499Z,62.87
2022-10-18T08:36:02.127Z,62.70
2022-10-18T08:38:32.523Z,62.84
2022-10-18T08:41:01.964Z,62.47
2022-10-18T08:43:38.812Z,62.18
2022-10-18T08:46:06.859Z,62.51
2022-10-18T08:48:42.009Z,62.56
2022-10-18T08:51:20.049Z,62.73
2022-10-18T08:53:59.443Z,62.80
2022-10-18T08:56:28.080Z,63.08
2022-10-18T08:58:56.073Z,62.77
2022-10-18T09:01:38.167Z,62.60
2022-10-18T09:04:25.390Z,62.77
2022-10-18T09:07:13.528Z,62.85
2022-10-18T09:09:48.603Z,62.82
2022-10-18T09:12:36.474Z,63.08
2022-10-18T09:15:22.075Z,62.88
2022-10-18T09:18:04.556Z,62.97
2022-10-18T09:20:35.379Z,63.13
2022-10-18T09:23:10.465Z,63.00
2022-10-18T09:25:51.385Z,62.68
2022-10-18T09:28:30.878Z,62.48
2022-10-18T09:31:05.518Z,61.97
2022-10-18T09:33:44.836Z,61.84
2022-10-18T09:36:18.645Z,61.47
2022-10-18T09:38:50.514Z,61.25
2022-10-18T09:41:24.666Z,61.19
2022-10-18T09:43:59.254Z,60.96
2022-10-18T09:46:29.358Z,60.62
2022-10-18T09:49:01.392Z,60.28
2022-10-18T09:51:35.155Z,60.06
2022-10-18T09:54:18.607Z,59.65
2022-10-18T09:56:50.054Z,59.52
2022-10-18T09:59:38.385Z,60.63
2022-10-18T10:02:07.369Z,61.57
2022-10-18T10:04:35.386Z,60.30
2022-10-18T10:07:03.535Z,59.54
2022-10-18T10:09:37.703Z,59.32
2022-10-18T10:12:07.109Z,59.51
2022-10-18T10:14:44.524Z,60.39
2022-10-18T10:17:23.869Z,59.58
2022-10-18T10:19:59.907Z,59.17
2022-10-18T10:22:32.847Z,58.70
2022-10-18T10:25:00.858Z,58.49
2022-10-18T10:27:33.467Z,58.27
2022-10-18T10:30:07.008Z,58.24
2022-10-18T10:32:47.102Z,57.90
2022-10-18T10:35:34.046Z,57.78
2022-10-18T10:38:24.839Z,57.85
2022-10-18T10:40:53.395Z,57.64
2022-10-18T10:43:37.035Z,57.49
2022-10-18T10:46:08.872Z,57.30
2022-10-18T10:48:46.589Z,57.17
2022-10-18T10:51:15.451Z,57.33
2022-10-18T10:53:46.911Z,58.03
2022-10-18T10:56:19.532Z,60.76
2022-10-18T10:58:49.537Z,60.92
2022-10-18T11:01:23.661Z,60.83
2022-10-18T11:03:53.978Z,60.27
2022-10-18T11:06:39.040Z,59.37
2022-10-18T11:09:17.537Z,59.29
2022-10-18T11:12:00.745Z,59.13
2022-10-18T11:14:33.238Z,59.45
2022-10-18T11:17:11.586Z,59.30
2022-10-18T11:19:46.816Z,60.30
2022-10-18T11:22:19.718Z,60.40
2022-10-18T11:24:48.055Z,60.18
2022-10-18T11:27:25.536Z,60.23
2022-10-18T11:30:15.560Z,60.41
2022-10-18T11:32:54.439Z,60.41
2022-10-18T11:35:40.512Z,59.94
2022-10-18T11:38:23.791Z,60.27
2022-10-18T11:41:08.231Z,60.20
2022-10-18T11:44:01.623Z,60.41
2022-10-18T11:46:46.378Z,60.39
2022-10-18T11:49:30.992Z,60.66
2022-10-18T11:52:09.592Z,60.71
2022-10-18T11:55:02.578Z,60.62
2022-10-18T11:57:47.919Z,60.62
2022-10-18T12:03:39.501Z,60.65
2022-10-18T12:06:16.130Z,60.64
2022-10-18T12:08:48.066Z,60.68
2022-10-18T12:11:18.874Z,60.56
2022-10-18T12:13:52.479Z,60.52
2022-10-18T12:16:45.523Z,60.71
2022-10-18T12:19:23.452Z,60.51
2022-10-18T12:22:09.321Z,60.51
2022-10-18T12:24:38.111Z,60.65
2022-10-18T12:27:08.301Z,60.40
2022-10-18T12:29:44.273Z,60.53
2022-10-18T12:32:17.231Z,60.71
2022-10-18T12:34:47.903Z,60.29
2022-10-18T12:37:35.058Z,60.07
2022-10-18T12:40:12.485Z,60.26
2022-10-18T12:42:44.559Z,60.17
2022-10-18T12:45:28.343Z,60.17
2022-10-18T12:48:00.034Z,60.48
2022-10-18T12:50:34.012Z,60.39
2022-10-18T12:53:18.817Z,60.55
2022-10-18T12:55:49.756Z,60.49
2022-10-18T12:58:29.949Z,60.52
2022-10-18T13:01:15.807Z,60.90
2022-10-18T13:04:01.615Z,60.69
2022-10-18T13:07:18.440Z,60.55
2022-10-18T13:10:19.668Z,60.51
2022-10-18T13:13:24.484Z,61.13
2022-10-18T13:16:03.177Z,61.15
2022-10-18T13:18:41.342Z,61.16
2022-10-18T13:21:19.215Z,60.87
2022-10-18T13:24:13.530Z,60.43
2022-10-18T13:26:59.150Z,60.47
2022-10-18T13:30:05.132Z,60.54
2022-10-18T13:32:37.660Z,60.09
2022-10-18T13:35:45.730Z,60.30
2022-10-18T13:38:33.681Z,60.19
2022-10-18T13:41:03.130Z,60.04
2022-10-18T13:44:23.942Z,60.12
2022-10-18T13:50:36.262Z,60.01
2022-10-18T13:53:18.651Z,60.11
2022-10-18T13:55:58.790Z,60.15
2022-10-18T13:58:48.911Z,59.91
2022-10-18T14:01:35.690Z,59.97
2022-10-18T14:04:31.885Z,59.67
2022-10-18T14:07:04.684Z,60.22
2022-10-18T14:09:44.392Z,60.90
2022-10-18T14:12:23.927Z,60.36
2022-10-18T14:14:58.990Z,60.69
2022-10-18T14:17:35.186Z,60.67
2022-10-18T14:20:15.430Z,60.66
2022-10-18T14:22:49.321Z,60.89
2022-10-18T14:25:24.256Z,60.37
2022-10-18T14:28:12.643Z,60.57
2022-10-18T14:30:53.811Z,60.74
2022-10-18T14:33:40.593Z,60.94
2022-10-18T14:36:15.358Z,60.65
2022-10-18T14:38:51.652Z,60.27
2022-10-18T14:41:24.036Z,60.42
2022-10-18T14:43:53.372Z,60.10
2022-10-18T14:46:27.225Z,60.05
2022-10-18T14:48:59.067Z,59.08
2022-10-18T14:51:28.109Z,59.11
2022-10-18T14:53:57.788Z,59.51
2022-10-18T14:56:29.040Z,58.80
2022-10-18T14:58:59.470Z,59.03
2022-10-18T15:01:31.022Z,59.88
2022-10-18T15:04:00.688Z,60.49
2022-10-18T15:06:28.759Z,60.89
2022-10-18T15:09:00.074Z,60.98
2022-10-18T15:11:29.314Z,61.29
2022-10-18T15:13:59.599Z,61.43
2022-10-18T15:16:30.258Z,61.63
2022-10-18T15:19:04.907Z,61.41
2022-10-18T15:21:36.730Z,61.31
2022-10-18T15:24:29.331Z,61.57
2022-10-18T15:26:59.765Z,61.83
2022-10-18T15:29:32.489Z,61.12
2022-10-18T15:32:08.943Z,61.31
2022-10-18T15:34:36.963Z,61.01
2022-10-18T15:37:26.102Z,60.14
2022-10-18T15:40:34.420Z,59.88
2022-10-18T15:43:06.983Z,60.14
2022-10-18T15:45:39.129Z,59.77
2022-10-18T15:48:21.276Z,59.63
2022-10-18T15:50:50.942Z,59.61
2022-10-18T15:53:52.630Z,59.38
2022-10-18T15:56:39.348Z,59.78
2022-10-18T15:59:23.519Z,60.77
2022-10-18T16:01:51.600Z,60.59
2022-10-18T16:04:24.580Z,59.84
2022-10-18T16:06:53.024Z,59.73
2022-10-18T16:09:22.702Z,59.19
2022-10-18T16:11:55.798Z,59.45
2022-10-18T16:14:27.813Z,58.93
2022-10-18T16:17:02.318Z,59.25
2022-10-18T16:19:31.175Z,59.32
2022-10-18T16:22:03.649Z,59.13
2022-10-18T16:24:34.211Z,58.79
2022-10-18T16:27:04.654Z,59.43
2022-10-18T16:29:33.972Z,59.60
2022-10-18T16:32:01.911Z,59.82
2022-10-18T16:34:32.098Z,59.87
2022-10-18T16:37:00.286Z,59.97
2022-10-18T16:39:29.167Z,60.02
2022-10-18T16:41:57.102Z,60.41
2022-10-18T16:44:25.048Z,60.87
2022-10-18T16:46:56.318Z,60.82
2022-10-18T16:49:26.780Z,60.90
2022-10-18T16:51:55.355Z,60.99
2022-10-18T16:54:24.070Z,61.27
2022-10-18T16:56:52.044Z,61.27
2022-10-18T16:59:24.167Z,61.43
2022-10-18T17:01:52.210Z,61.01
2022-10-18T17:04:21.709Z,60.43
2022-10-18T17:06:50.090Z,60.94
2022-10-18T17:09:20.300Z,60.78
2022-10-18T17:11:48.230Z,60.74
2022-10-18T17:14:16.130Z,60.86
2022-10-18T17:16:46.646Z,60.73
2022-10-18T17:19:18.126Z,60.60
2022-10-18T17:21:47.391Z,60.62
2022-10-18T17:24:15.382Z,60.79
2022-10-18T17:26:43.435Z,60.99
2022-10-18T17:29:11.422Z,60.95
2022-10-18T17:31:39.401Z,60.94
2022-10-18T17:34:07.686Z,60.68
2022-10-18T17:36:35.746Z,60.95
2022-10-18T17:39:05.862Z,61.05
2022-10-18T17:41:33.849Z,61.10
2022-10-18T17:44:03.579Z,61.10
2022-10-18T17:46:31.909Z,60.78
2022-10-18T17:49:00.002Z,61.23
2022-10-18T17:51:28.333Z,61.01
2022-10-18T17:53:56.294Z,61.06
2022-10-18T17:56:31.017Z,60.97
2022-10-18T17:58:59.017Z,61.00
2022-10-18T18:01:27.283Z,61.19
2022-10-18T18:03:57.614Z,60.92
2022-10-18T18:06:31.299Z,61.02
2022-10-18T18:09:00.365Z,60.83
2022-10-18T18:11:29.951Z,61.00
2022-10-18T18:13:58.451Z,61.00
2022-10-18T18:16:27.666Z,61.37
2022-10-18T18:18:57.802Z,61.36
2022-10-18T18:21:26.808Z,61.38
2022-10-18T18:23:55.088Z,61.14
2022-10-18T18:26:23.418Z,61.34
2022-10-18T18:28:52.903Z,60.95
2022-10-18T18:31:23.940Z,61.00
2022-10-18T18:33:52.676Z,60.95
2022-10-18T18:36:21.488Z,61.34
2022-10-18T18:38:55.455Z,61.19
2022-10-18T18:41:27.649Z,61.08
2022-10-18T18:43:58.221Z,61.10
2022-10-18T18:46:27.953Z,61.00
2022-10-18T18:48:58.464Z,60.78
2022-10-18T18:51:27.380Z,60.93
2022-10-18T18:53:55.803Z,61.19
2022-10-18T18:56:25.442Z,61.00
2022-10-18T18:58:54.394Z,61.13
2022-10-18T19:01:25.723Z,60.99
2022-10-18T19:03:55.154Z,61.41
2022-10-18T19:06:24.640Z,61.12
2022-10-18T19:08:54.500Z,61.15
2022-10-18T19:11:23.824Z,61.22
2022-10-18T19:13:51.763Z,61.04
2022-10-18T19:16:24.600Z,60.82
2022-10-18T19:18:58.463Z,61.10
2022-10-18T19:21:28.724Z,61.17
2022-10-18T19:23:57.261Z,60.75
2022-10-18T19:26:30.400Z,61.18
2022-10-18T19:29:03.408Z,61.11
2022-10-18T19:31:34.175Z,61.02
2022-10-18T19:34:02.396Z,60.89
2022-10-18T19:36:31.334Z,60.97
2022-10-18T19:38:59.511Z,61.28
2022-10-18T19:41:28.767Z,60.69
2022-10-18T19:43:57.550Z,60.86
2022-10-18T19:46:26.042Z,60.98
2022-10-18T19:48:55.480Z,60.83
2022-10-18T19:51:27.683Z,60.81
2022-10-18T19:53:57.099Z,60.88
2022-10-18T19:56:26.830Z,60.78
2022-10-18T19:58:55.297Z,61.32
2022-10-18T20:01:23.222Z,60.88
2022-10-18T20:03:51.371Z,61.18
2022-10-18T20:06:21.206Z,61.04
2022-10-18T20:08:49.570Z,60.94
2022-10-18T20:11:19.826Z,61.06
2022-10-18T20:13:48.154Z,61.07
2022-10-18T20:16:18.717Z,60.75
2022-10-18T20:18:46.649Z,61.10
2022-10-18T20:21:16.594Z,60.90
2022-10-18T20:23:45.914Z,61.12
2022-10-18T20:26:18.117Z,61.05
2022-10-18T20:28:55.887Z,61.08
2022-10-18T20:31:25.912Z,61.34
2022-10-18T20:33:58.712Z,61.18
2022-10-18T20:36:27.733Z,60.95
2022-10-18T20:38:57.430Z,60.73
2022-10-18T20:41:29.087Z,60.90
2022-10-18T20:43:58.309Z,60.60
2022-10-18T20:46:26.833Z,60.68
2022-10-18T20:48:55.333Z,60.52
2022-10-18T20:51:23.583Z,60.64
2022-10-18T20:53:51.829Z,60.67
2022-10-18T20:56:22.831Z,60.55
2022-10-18T20:58:52.459Z,60.76
2022-10-18T21:01:22.646Z,60.70
2022-10-18T21:03:52.525Z,60.51
2022-10-18T21:06:22.974Z,60.49
2022-10-18T21:08:54.489Z,60.51
2022-10-18T21:11:24.529Z,60.61
2022-10-18T21:13:57.459Z,60.47
2022-10-18T21:16:26.026Z,60.52
2022-10-18T21:18:54.828Z,60.41
2022-10-18T21:21:24.735Z,59.73
2022-10-18T21:23:55.067Z,60.26
2022-10-18T21:26:26.749Z,60.32
2022-10-18T21:28:57.779Z,59.94
2022-10-18T21:31:27.268Z,60.26
2022-10-18T21:33:57.077Z,60.82
2022-10-18T21:36:25.775Z,60.28
2022-10-18T21:38:54.383Z,59.55
2022-10-18T21:41:24.318Z,59.06
2022-10-18T21:43:53.801Z,58.56
2022-10-18T21:46:23.435Z,58.46
2022-10-18T21:48:53.563Z,58.54
2022-10-18T21:51:24.156Z,58.20
2022-10-18T21:53:54.681Z,58.17
2022-10-18T21:56:25.874Z,57.81
2022-10-18T21:58:53.874Z,57.89
2022-10-18T22:01:25.566Z,57.57
2022-10-18T22:03:55.330Z,57.63
2022-10-18T22:06:24.414Z,57.47
2022-10-18T22:08:54.646Z,57.39
2022-10-18T22:11:25.857Z,57.04
2022-10-18T22:13:56.689Z,57.09
2022-10-18T22:16:25.017Z,56.69
2022-10-18T22:18:54.201Z,56.72
2022-10-18T22:21:22.176Z,56.64
2022-10-18T22:23:52.502Z,56.41
2022-10-18T22:26:22.538Z,56.46
2022-10-18T22:28:57.724Z,56.43
2022-10-18T22:31:27.256Z,56.28
2022-10-18T22:33:56.176Z,56.50
2022-10-18T22:36:24.903Z,56.57
2022-10-18T22:38:53.164Z,56.33
2022-10-18T22:41:21.315Z,56.10
2022-10-18T22:43:51.690Z,56.25
2022-10-18T22:46:21.832Z,56.04
2022-10-18T22:48:50.198Z,56.24
2022-10-18T22:51:18.215Z,56.05
2022-10-18T22:53:46.451Z,55.99
2022-10-18T22:56:17.806Z,55.84
2022-10-18T22:58:46.051Z,56.00
2022-10-18T23:01:16.283Z,55.82
2022-10-18T23:03:45.736Z,55.81
2022-10-18T23:06:22.163Z,55.77
2022-10-18T23:08:50.524Z,55.77
2022-10-18T23:11:19.070Z,55.51
2022-10-18T23:13:47.050Z,55.54
2022-10-18T23:16:15.286Z,55.50
2022-10-18T23:18:45.514Z,55.55
2022-10-18T23:21:14.736Z,55.37
2022-10-18T23:23:43.649Z,55.46
2022-10-18T23:26:13.217Z,55.32
2022-10-18T23:28:42.956Z,55.43
2022-10-18T23:31:12.848Z,55.25
2022-10-18T23:33:41.563Z,55.26
2022-10-18T23:36:11.179Z,55.18
2022-10-18T23:38:39.927Z,55.17
2022-10-18T23:41:10.037Z,55.09
2022-10-18T23:43:38.083Z,54.89
2022-10-18T23:46:09.908Z,55.17
2022-10-18T23:48:38.045Z,54.87
2022-10-18T23:51:06.919Z,54.80
2022-10-18T23:53:36.725Z,54.79
2022-10-18T23:56:06.757Z,54.63
2022-10-18T23:58:36.461Z,54.70
